sensor_id;sensor_type;location;lat;lon;timestamp;P1;P2;P0
65574;PMS5003;52216;54.942;73.394;2022-12-29T00:00:21;3.00;3.00;0.00
65574;PMS5003;52216;54.942;73.394;2022-12-29T00:03:24;4.00;3.25;1.00
65574;PMS5003;52216;54.942;73.394;2022-12-29T00:06:28;6.00;5.00;1.00
65574;PMS5003;52216;54.942;73.394;2022-12-29T00:09:31;6.25;5.00;2.00
65574;PMS5003;52216;54.942;73.394;2022-12-29T00:12:45;5.00;4.25;1.00
65574;PMS5003;52216;54.942;73.394;2022-12-29T00:16:06;3.00;3.00;1.00
65574;PMS5003;52216;54.942;73.394;2022-12-29T00:19:10;4.25;3.00;1.00
65574;PMS5003;52216;54.942;73.394;2022-12-29T00:22:43;6.50;5.00;0.00
65574;PMS5003;52216;54.942;73.394;2022-12-29T00:26:08;10.00;6.50;1.75
65574;PMS5003;52216;54.942;73.394;2022-12-29T00:29:40;10.00;6.00;2.00
65574;PMS5003;52216;54.942;73.394;2022-12-29T00:33:08;7.00;4.50;1.00
65574;PMS5003;52216;54.942;73.394;2022-12-29T00:36:37;5.00;3.00;1.00
65574;PMS5003;52216;54.942;73.394;2022-12-29T00:39:50;4.00;4.00;1.00
65574;PMS5003;52216;54.942;73.394;2022-12-29T00:43:12;3.75;3.00;0.00
65574;PMS5003;52216;54.942;73.394;2022-12-29T00:46:33;5.00;5.00;0.25
65574;PMS5003;52216;54.942;73.394;2022-12-29T00:49:37;5.00;4.00;1.00
65574;PMS5003;52216;54.942;73.394;2022-12-29T00:52:50;3.75;3.00;0.00
65574;PMS5003;52216;54.942;73.394;2022-12-29T00:55:53;6.25;6.00;2.50
65574;PMS5003;52216;54.942;73.394;2022-12-29T00:59:08;6.50;5.25;2.00
65574;PMS5003;52216;54.942;73.394;2022-12-29T01:02:21;7.00;7.00;2.00
65574;PMS5003;52216;54.942;73.394;2022-12-29T01:05:24;7.75;7.00;2.00
65574;PMS5003;52216;54.942;73.394;2022-12-29T01:08:28;7.50;5.25;2.00
65574;PMS5003;52216;54.942;73.394;2022-12-29T01:11:41;3.00;3.00;1.00
65574;PMS5003;52216;54.942;73.394;2022-12-29T01:14:54;8.75;5.00;2.25
65574;PMS5003;52216;54.942;73.394;2022-12-29T01:17:57;9.00;5.00;2.00
65574;PMS5003;52216;54.942;73.394;2022-12-29T01:21:10;7.75;5.00;2.75
65574;PMS5003;52216;54.942;73.394;2022-12-29T01:24:12;8.00;5.00;3.00
65574;PMS5003;52216;54.942;73.394;2022-12-29T01:27:20;4.75;4.00;1.00
65574;PMS5003;52216;54.942;73.394;2022-12-29T01:30:23;5.50;5.00;2.00
65574;PMS5003;52216;54.942;73.394;2022-12-29T01:33:30;6.25;5.75;1.50
65574;PMS5003;52216;54.942;73.394;2022-12-29T01:36:33;3.50;3.00;1.00
65574;PMS5003;52216;54.942;73.394;2022-12-29T01:39:36;4.00;3.00;0.00
65574;PMS5003;52216;54.942;73.394;2022-12-29T01:42:40;5.00;3.00;0.00
65574;PMS5003;52216;54.942;73.394;2022-12-29T01:45:52;5.00;5.00;2.25
65574;PMS5003;52216;54.942;73.394;2022-12-29T01:52:06;4.00;3.00;0.00
65574;PMS5003;52216;54.942;73.394;2022-12-29T01:55:10;5.00;4.75;1.25
65574;PMS5003;52216;54.942;73.394;2022-12-29T01:58:13;5.25;5.00;1.00
65574;PMS5003;52216;54.942;73.394;2022-12-29T02:01:18;8.75;7.00;2.00
65574;PMS5003;52216;54.942;73.394;2022-12-29T02:04:23;10.00;8.00;3.00
65574;PMS5003;52216;54.942;73.394;2022-12-29T02:07:38;8.50;5.50;1.00
65574;PMS5003;52216;54.942;73.394;2022-12-29T02:10:41;5.00;3.00;1.00
65574;PMS5003;52216;54.942;73.394;2022-12-29T02:13:45;4.25;3.75;1.00
65574;PMS5003;52216;54.942;73.394;2022-12-29T02:20:06;9.00;9.00;3.00
65574;PMS5003;52216;54.942;73.394;2022-12-29T02:29:40;9.00;7.00;3.00
65574;PMS5003;52216;54.942;73.394;2022-12-29T02:39:43;30.25;25.00;14.00
65574;PMS5003;52216;54.942;73.394;2022-12-29T02:49:17;41.00;31.60;19.20
65574;PMS5003;52216;54.942;73.394;2022-12-29T02:52:37;40.40;31.60;19.00
65574;PMS5003;52216;54.942;73.394;2022-12-29T02:55:51;39.25;30.00;18.00
65574;PMS5003;52216;54.942;73.394;2022-12-29T02:58:54;38.50;30.00;18.00
65574;PMS5003;52216;54.942;73.394;2022-12-29T03:02:24;39.00;30.00;19.00
65574;PMS5003;52216;54.942;73.394;2022-12-29T03:08:44;37.00;30.00;18.00
65574;PMS5003;52216;54.942;73.394;2022-12-29T03:12:14;39.00;31.00;19.00
65574;PMS5003;52216;54.942;73.394;2022-12-29T03:15:21;39.00;30.00;19.00
65574;PMS5003;52216;54.942;73.394;2022-12-29T03:18:58;38.25;29.00;19.00
65574;PMS5003;52216;54.942;73.394;2022-12-29T03:22:04;38.50;28.00;18.00
65574;PMS5003;52216;54.942;73.394;2022-12-29T03:25:33;36.00;27.67;17.00
65574;PMS5003;52216;54.942;73.394;2022-12-29T03:28:51;34.00;27.00;17.00
65574;PMS5003;52216;54.942;73.394;2022-12-29T03:31:57;33.50;26.00;15.50
65574;PMS5003;52216;54.942;73.394;2022-12-29T03:35:03;32.00;24.75;14.75
65574;PMS5003;52216;54.942;73.394;2022-12-29T03:38:11;28.50;22.50;14.00
65574;PMS5003;52216;54.942;73.394;2022-12-29T03:41:17;21.50;19.00;11.00
65574;PMS5003;52216;54.942;73.394;2022-12-29T03:44:20;17.00;16.00;8.25
65574;PMS5003;52216;54.942;73.394;2022-12-29T03:47:27;17.00;16.00;7.00
65574;PMS5003;52216;54.942;73.394;2022-12-29T03:50:35;14.00;14.00;5.00
65574;PMS5003;52216;54.942;73.394;2022-12-29T03:53:41;13.00;11.75;5.00
65574;PMS5003;52216;54.942;73.394;2022-12-29T03:56:45;11.50;10.00;4.50
65574;PMS5003;52216;54.942;73.394;2022-12-29T03:59:50;15.00;13.33;6.33
65574;PMS5003;52216;54.942;73.394;2022-12-29T04:03:03;15.50;12.00;5.00
65574;PMS5003;52216;54.942;73.394;2022-12-29T04:06:06;14.00;12.00;6.75
65574;PMS5003;52216;54.942;73.394;2022-12-29T04:09:40;14.00;13.00;5.00
65574;PMS5003;52216;54.942;73.394;2022-12-29T04:12:46;15.00;13.00;6.00
65574;PMS5003;52216;54.942;73.394;2022-12-29T04:15:49;15.00;14.00;5.00
65574;PMS5003;52216;54.942;73.394;2022-12-29T04:18:52;12.00;12.00;4.67
65574;PMS5003;52216;54.942;73.394;2022-12-29T04:21:54;12.50;11.00;5.00
65574;PMS5003;52216;54.942;73.394;2022-12-29T04:24:57;13.00;11.00;5.00
65574;PMS5003;52216;54.942;73.394;2022-12-29T04:28:10;15.50;14.25;7.25
65574;PMS5003;52216;54.942;73.394;2022-12-29T04:31:38;15.00;14.00;8.00
65574;PMS5003;52216;54.942;73.394;2022-12-29T04:34:41;16.75;14.00;7.75
65574;PMS5003;52216;54.942;73.394;2022-12-29T04:37:54;17.00;14.00;8.00
65574;PMS5003;52216;54.942;73.394;2022-12-29T04:41:07;17.00;15.00;8.00
65574;PMS5003;52216;54.942;73.394;2022-12-29T04:44:11;14.50;14.00;7.00
65574;PMS5003;52216;54.942;73.394;2022-12-29T04:47:15;17.00;14.00;8.00
65574;PMS5003;52216;54.942;73.394;2022-12-29T04:50:38;18.50;16.75;8.50
65574;PMS5003;52216;54.942;73.394;2022-12-29T04:54:01;16.33;15.00;8.00
65574;PMS5003;52216;54.942;73.394;2022-12-29T04:57:06;14.00;12.50;6.00
65574;PMS5003;52216;54.942;73.394;2022-12-29T05:00:15;16.33;15.67;7.00
65574;PMS5003;52216;54.942;73.394;2022-12-29T05:03:23;20.75;17.50;11.00
65574;PMS5003;52216;54.942;73.394;2022-12-29T05:06:29;19.00;15.00;10.00
65574;PMS5003;52216;54.942;73.394;2022-12-29T05:09:36;19.75;16.25;10.00
65574;PMS5003;52216;54.942;73.394;2022-12-29T05:12:39;21.00;17.00;10.00
65574;PMS5003;52216;54.942;73.394;2022-12-29T05:15:47;19.00;15.00;9.00
65574;PMS5003;52216;54.942;73.394;2022-12-29T05:18:56;17.00;14.00;8.00
65574;PMS5003;52216;54.942;73.394;2022-12-29T05:21:58;17.00;14.00;7.75
65574;PMS5003;52216;54.942;73.394;2022-12-29T05:25:00;17.00;14.00;6.00
65574;PMS5003;52216;54.942;73.394;2022-12-29T05:28:04;18.00;16.00;7.00
65574;PMS5003;52216;54.942;73.394;2022-12-29T05:31:24;19.75;16.00;8.50
65574;PMS5003;52216;54.942;73.394;2022-12-29T05:34:29;17.33;16.00;9.00
65574;PMS5003;52216;54.942;73.394;2022-12-29T05:37:31;18.00;16.00;9.50
65574;PMS5003;52216;54.942;73.394;2022-12-29T05:40:35;17.33;15.00;9.00
65574;PMS5003;52216;54.942;73.394;2022-12-29T05:43:41;19.50;18.00;10.50
65574;PMS5003;52216;54.942;73.394;2022-12-29T05:47:05;19.75;19.25;12.00
65574;PMS5003;52216;54.942;73.394;2022-12-29T05:50:41;21.75;20.00;12.00
65574;PMS5003;52216;54.942;73.394;2022-12-29T05:53:47;21.50;19.50;12.00
65574;PMS5003;52216;54.942;73.394;2022-12-29T05:56:54;24.00;20.00;13.00
65574;PMS5003;52216;54.942;73.394;2022-12-29T05:59:56;26.00;21.50;14.00
65574;PMS5003;52216;54.942;73.394;2022-12-29T06:02:58;28.50;23.00;14.00
65574;PMS5003;52216;54.942;73.394;2022-12-29T06:06:01;28.50;24.00;14.00
65574;PMS5003;52216;54.942;73.394;2022-12-29T06:09:04;28.00;23.00;14.00
65574;PMS5003;52216;54.942;73.394;2022-12-29T06:12:11;31.00;25.00;15.75
65574;PMS5003;52216;54.942;73.394;2022-12-29T06:15:28;33.00;26.00;17.00
65574;PMS5003;52216;54.942;73.394;2022-12-29T06:18:32;33.00;26.75;17.00
65574;PMS5003;52216;54.942;73.394;2022-12-29T06:21:34;34.00;26.50;16.00
65574;PMS5003;52216;54.942;73.394;2022-12-29T06:24:38;35.00;27.50;17.00
65574;PMS5003;52216;54.942;73.394;2022-12-29T06:27:46;32.25;26.75;16.75
65574;PMS5003;52216;54.942;73.394;2022-12-29T06:30:49;32.00;25.00;16.00
65574;PMS5003;52216;54.942;73.394;2022-12-29T06:33:59;34.00;26.75;16.00
65574;PMS5003;52216;54.942;73.394;2022-12-29T06:37:03;32.00;25.00;15.75
65574;PMS5003;52216;54.942;73.394;2022-12-29T06:40:13;31.00;24.25;15.50
65574;PMS5003;52216;54.942;73.394;2022-12-29T06:43:51;32.33;26.33;17.00
65574;PMS5003;52216;54.942;73.394;2022-12-29T06:47:05;34.00;27.00;18.00
65574;PMS5003;52216;54.942;73.394;2022-12-29T06:50:08;34.00;27.00;18.00
65574;PMS5003;52216;54.942;73.394;2022-12-29T06:53:11;34.00;27.00;16.00
65574;PMS5003;52216;54.942;73.394;2022-12-29T06:56:14;34.00;27.00;16.00
65574;PMS5003;52216;54.942;73.394;2022-12-29T06:59:17;34.00;27.00;17.00
65574;PMS5003;52216;54.942;73.394;2022-12-29T07:02:20;32.00;25.50;16.00
65574;PMS5003;52216;54.942;73.394;2022-12-29T07:05:32;29.00;24.00;14.67
65574;PMS5003;52216;54.942;73.394;2022-12-29T07:08:36;24.25;21.00;12.00
65574;PMS5003;52216;54.942;73.394;2022-12-29T07:11:40;27.25;22.00;14.00
65574;PMS5003;52216;54.942;73.394;2022-12-29T07:14:42;30.25;24.00;14.00
65574;PMS5003;52216;54.942;73.394;2022-12-29T07:17:57;25.60;21.80;13.20
65574;PMS5003;52216;54.942;73.394;2022-12-29T07:21:01;20.00;18.25;11.00
65574;PMS5003;52216;54.942;73.394;2022-12-29T07:24:04;18.25;15.25;9.00
65574;PMS5003;52216;54.942;73.394;2022-12-29T07:27:06;20.50;16.00;9.00
65574;PMS5003;52216;54.942;73.394;2022-12-29T07:30:14;21.25;18.00;11.00
65574;PMS5003;52216;54.942;73.394;2022-12-29T07:33:16;18.75;17.75;10.00
65574;PMS5003;52216;54.942;73.394;2022-12-29T07:36:19;16.00;14.00;7.50
65574;PMS5003;52216;54.942;73.394;2022-12-29T07:39:32;14.25;13.00;5.75
65574;PMS5003;52216;54.942;73.394;2022-12-29T07:42:34;17.00;14.50;6.00
65574;PMS5003;52216;54.942;73.394;2022-12-29T07:45:36;16.25;16.00;7.00
65574;PMS5003;52216;54.942;73.394;2022-12-29T07:48:44;16.00;14.00;7.00
65574;PMS5003;52216;54.942;73.394;2022-12-29T07:51:47;15.00;14.00;7.50
65574;PMS5003;52216;54.942;73.394;2022-12-29T07:54:54;14.00;13.00;5.25
65574;PMS5003;52216;54.942;73.394;2022-12-29T07:57:58;14.00;12.00;6.00
65574;PMS5003;52216;54.942;73.394;2022-12-29T08:01:00;12.00;11.00;5.00
65574;PMS5003;52216;54.942;73.394;2022-12-29T08:04:02;12.00;12.00;4.00
65574;PMS5003;52216;54.942;73.394;2022-12-29T08:07:05;11.50;11.00;3.00
65574;PMS5003;52216;54.942;73.394;2022-12-29T08:10:07;13.50;12.00;5.75
65574;PMS5003;52216;54.942;73.394;2022-12-29T08:13:09;13.00;11.50;4.50
65574;PMS5003;52216;54.942;73.394;2022-12-29T08:16:14;10.25;9.00;3.00
65574;PMS5003;52216;54.942;73.394;2022-12-29T08:19:22;6.75;6.00;2.50
65574;PMS5003;52216;54.942;73.394;2022-12-29T08:22:25;7.00;5.50;2.00
65574;PMS5003;52216;54.942;73.394;2022-12-29T08:25:28;9.00;7.00;2.25
65574;PMS5003;52216;54.942;73.394;2022-12-29T08:28:35;11.00;9.00;3.00
65574;PMS5003;52216;54.942;73.394;2022-12-29T08:31:38;12.75;11.00;3.00
65574;PMS5003;52216;54.942;73.394;2022-12-29T08:34:45;12.50;9.50;3.50
65574;PMS5003;52216;54.942;73.394;2022-12-29T08:37:48;11.00;9.00;3.00
65574;PMS5003;52216;54.942;73.394;2022-12-29T08:40:51;11.25;10.75;3.00
65574;PMS5003;52216;54.942;73.394;2022-12-29T08:43:53;13.00;12.00;5.00
65574;PMS5003;52216;54.942;73.394;2022-12-29T08:47:04;10.75;10.75;3.75
65574;PMS5003;52216;54.942;73.394;2022-12-29T08:50:07;9.00;7.00;3.00
65574;PMS5003;52216;54.942;73.394;2022-12-29T08:53:10;9.00;6.00;2.75
65574;PMS5003;52216;54.942;73.394;2022-12-29T08:56:23;9.00;7.00;3.00
65574;PMS5003;52216;54.942;73.394;2022-12-29T08:59:35;8.00;5.00;3.00
65574;PMS5003;52216;54.942;73.394;2022-12-29T09:02:39;6.00;4.00;1.00
65574;PMS5003;52216;54.942;73.394;2022-12-29T09:05:42;9.00;7.00;3.00
65574;PMS5003;52216;54.942;73.394;2022-12-29T09:08:55;8.00;5.00;3.00
65574;PMS5003;52216;54.942;73.394;2022-12-29T09:12:06;5.00;5.00;2.00
65574;PMS5003;52216;54.942;73.394;2022-12-29T09:15:10;7.50;6.00;2.00
65574;PMS5003;52216;54.942;73.394;2022-12-29T09:18:13;9.00;7.00;2.00
65574;PMS5003;52216;54.942;73.394;2022-12-29T09:21:16;9.00;7.00;3.00
65574;PMS5003;52216;54.942;73.394;2022-12-29T09:24:19;7.00;7.00;3.00
65574;PMS5003;52216;54.942;73.394;2022-12-29T09:27:27;7.00;6.00;3.00
65574;PMS5003;52216;54.942;73.394;2022-12-29T09:30:36;9.00;6.75;3.50
65574;PMS5003;52216;54.942;73.394;2022-12-29T09:33:47;10.00;7.25;3.25
65574;PMS5003;52216;54.942;73.394;2022-12-29T09:36:50;13.25;11.50;4.50
65574;PMS5003;52216;54.942;73.394;2022-12-29T09:39:52;12.00;9.50;4.50
65574;PMS5003;52216;54.942;73.394;2022-12-29T09:46:40;9.00;9.00;3.25
65574;PMS5003;52216;54.942;73.394;2022-12-29T09:52:55;12.00;9.00;3.00
65574;PMS5003;52216;54.942;73.394;2022-12-29T09:56:03;12.00;10.25;5.00
65574;PMS5003;52216;54.942;73.394;2022-12-29T09:59:13;13.33;13.00;6.00
65574;PMS5003;52216;54.942;73.394;2022-12-29T10:02:37;13.00;12.00;5.00
65574;PMS5003;52216;54.942;73.394;2022-12-29T10:15:40;13.00;13.00;5.00
65574;PMS5003;52216;54.942;73.394;2022-12-29T10:18:47;17.25;15.75;7.00
65574;PMS5003;52216;54.942;73.394;2022-12-29T10:22:09;18.00;15.00;7.00
65574;PMS5003;52216;54.942;73.394;2022-12-29T10:25:25;16.00;14.00;7.00
65574;PMS5003;52216;54.942;73.394;2022-12-29T10:28:38;17.00;16.00;8.50
65574;PMS5003;52216;54.942;73.394;2022-12-29T10:31:54;20.00;17.00;10.00
65574;PMS5003;52216;54.942;73.394;2022-12-29T10:35:01;17.50;16.25;8.00
65574;PMS5003;52216;54.942;73.394;2022-12-29T10:42:13;19.00;17.75;9.00
65574;PMS5003;52216;54.942;73.394;2022-12-29T10:45:08;18.00;16.33;9.00
65574;PMS5003;52216;54.942;73.394;2022-12-29T10:48:18;18.00;16.00;9.00
65574;PMS5003;52216;54.942;73.394;2022-12-29T10:51:25;19.00;16.00;9.00
65574;PMS5003;52216;54.942;73.394;2022-12-29T10:57:39;15.00;14.00;7.75
65574;PMS5003;52216;54.942;73.394;2022-12-29T11:00:54;18.00;16.67;9.67
65574;PMS5003;52216;54.942;73.394;2022-12-29T11:04:16;17.00;16.00;9.25
65574;PMS5003;52216;54.942;73.394;2022-12-29T11:07:24;16.00;14.00;7.00
65574;PMS5003;52216;54.942;73.394;2022-12-29T11:13:48;18.00;16.00;8.00
65574;PMS5003;52216;54.942;73.394;2022-12-29T11:16:58;17.00;15.75;8.25
65574;PMS5003;52216;54.942;73.394;2022-12-29T11:20:11;18.00;17.00;10.00
65574;PMS5003;52216;54.942;73.394;2022-12-29T11:23:40;21.00;19.00;11.50
65574;PMS5003;52216;54.942;73.394;2022-12-29T11:26:43;24.50;19.00;12.00
65574;PMS5003;52216;54.942;73.394;2022-12-29T11:29:45;23.00;19.00;12.00
65574;PMS5003;52216;54.942;73.394;2022-12-29T11:32:53;22.00;18.50;11.00
65574;PMS5003;52216;54.942;73.394;2022-12-29T11:36:06;19.75;17.00;10.00
65574;PMS5003;52216;54.942;73.394;2022-12-29T11:39:25;22.00;17.75;11.00
65574;PMS5003;52216;54.942;73.394;2022-12-29T11:45:39;20.67;18.00;12.00
65574;PMS5003;52216;54.942;73.394;2022-12-29T11:48:47;18.25;16.00;8.50
65574;PMS5003;52216;54.942;73.394;2022-12-29T11:51:59;19.00;15.50;8.00
65574;PMS5003;52216;54.942;73.394;2022-12-29T11:55:04;16.33;15.00;8.00
65574;PMS5003;52216;54.942;73.394;2022-12-29T11:58:18;16.00;13.75;7.50
65574;PMS5003;52216;54.942;73.394;2022-12-29T12:01:33;14.00;11.00;4.00
65574;PMS5003;52216;54.942;73.394;2022-12-29T12:04:42;11.00;10.00;4.00
65574;PMS5003;52216;54.942;73.394;2022-12-29T12:07:46;12.00;11.00;3.00
65574;PMS5003;52216;54.942;73.394;2022-12-29T12:10:58;12.00;12.00;4.75
65574;PMS5003;52216;54.942;73.394;2022-12-29T12:21:25;13.00;12.00;5.00
65574;PMS5003;52216;54.942;73.394;2022-12-29T12:27:39;14.00;12.00;5.00
65574;PMS5003;52216;54.942;73.394;2022-12-29T12:30:46;14.25;12.00;7.00
65574;PMS5003;52216;54.942;73.394;2022-12-29T12:34:01;27.25;22.25;13.75
65574;PMS5003;52216;54.942;73.394;2022-12-29T12:56:35;28.50;23.00;14.50
65574;PMS5003;52216;54.942;73.394;2022-12-29T13:00:02;31.00;25.00;16.00
65574;PMS5003;52216;54.942;73.394;2022-12-29T13:09:58;29.00;24.00;15.00
65574;PMS5003;52216;54.942;73.394;2022-12-29T13:16:50;31.50;24.00;15.00
65574;PMS5003;52216;54.942;73.394;2022-12-29T13:29:21;26.00;22.50;13.00
65574;PMS5003;52216;54.942;73.394;2022-12-29T13:32:49;28.00;22.50;14.00
65574;PMS5003;52216;54.942;73.394;2022-12-29T13:35:57;28.00;22.00;14.00
65574;PMS5003;52216;54.942;73.394;2022-12-29T13:39:30;28.00;23.00;14.00
65574;PMS5003;52216;54.942;73.394;2022-12-29T13:42:29;29.75;24.00;14.00
65574;PMS5003;52216;54.942;73.394;2022-12-29T13:45:32;30.00;24.00;15.00
65574;PMS5003;52216;54.942;73.394;2022-12-29T13:48:53;29.50;23.00;14.00
65574;PMS5003;52216;54.942;73.394;2022-12-29T13:52:12;30.00;24.00;15.00
65574;PMS5003;52216;54.942;73.394;2022-12-29T13:58:44;32.00;25.00;16.00
65574;PMS5003;52216;54.942;73.394;2022-12-29T14:01:59;33.00;26.00;16.00
65574;PMS5003;52216;54.942;73.394;2022-12-29T14:08:20;30.50;24.00;16.00
65574;PMS5003;52216;54.942;73.394;2022-12-29T14:11:28;33.00;26.25;16.00
65574;PMS5003;52216;54.942;73.394;2022-12-29T14:14:32;31.00;24.00;14.00
65574;PMS5003;52216;54.942;73.394;2022-12-29T14:17:37;30.33;24.00;15.00
65574;PMS5003;52216;54.942;73.394;2022-12-29T14:23:51;27.00;22.00;13.00
65574;PMS5003;52216;54.942;73.394;2022-12-29T14:27:42;21.00;19.20;12.00
65574;PMS5003;52216;54.942;73.394;2022-12-29T14:31:03;20.67;19.00;11.00
65574;PMS5003;52216;54.942;73.394;2022-12-29T14:40:26;21.75;18.25;11.00
65574;PMS5003;52216;54.942;73.394;2022-12-29T14:43:29;22.25;19.00;12.00
65574;PMS5003;52216;54.942;73.394;2022-12-29T14:46:42;22.00;20.00;12.00
65574;PMS5003;52216;54.942;73.394;2022-12-29T14:49:45;22.75;20.00;13.00
65574;PMS5003;52216;54.942;73.394;2022-12-29T14:52:49;24.25;20.50;13.00
65574;PMS5003;52216;54.942;73.394;2022-12-29T14:55:55;24.00;20.00;12.00
65574;PMS5003;52216;54.942;73.394;2022-12-29T14:59:03;22.00;20.00;12.00
65574;PMS5003;52216;54.942;73.394;2022-12-29T15:02:13;22.00;20.00;12.00
65574;PMS5003;52216;54.942;73.394;2022-12-29T15:05:24;23.00;18.25;10.00
65574;PMS5003;52216;54.942;73.394;2022-12-29T15:08:35;20.00;18.50;9.50
65574;PMS5003;52216;54.942;73.394;2022-12-29T15:11:47;18.00;17.00;10.00
65574;PMS5003;52216;54.942;73.394;2022-12-29T15:14:55;17.67;15.00;9.00
65574;PMS5003;52216;54.942;73.394;2022-12-29T15:17:58;17.00;15.00;6.00
65574;PMS5003;52216;54.942;73.394;2022-12-29T15:21:19;14.00;12.00;5.00
65574;PMS5003;52216;54.942;73.394;2022-12-29T15:24:23;14.00;12.00;5.00
65574;PMS5003;52216;54.942;73.394;2022-12-29T15:27:25;14.00;11.00;5.00
65574;PMS5003;52216;54.942;73.394;2022-12-29T15:30:28;12.00;12.00;5.00
65574;PMS5003;52216;54.942;73.394;2022-12-29T15:33:30;14.00;12.00;5.00
65574;PMS5003;52216;54.942;73.394;2022-12-29T15:36:38;13.00;11.00;4.00
65574;PMS5003;52216;54.942;73.394;2022-12-29T15:39:46;11.00;10.00;3.00
65574;PMS5003;52216;54.942;73.394;2022-12-29T15:43:02;10.00;9.00;2.25
65574;PMS5003;52216;54.942;73.394;2022-12-29T15:46:10;10.00;6.50;2.00
65574;PMS5003;52216;54.942;73.394;2022-12-29T15:49:14;6.75;5.00;2.00
65574;PMS5003;52216;54.942;73.394;2022-12-29T15:52:18;5.00;5.00;2.25
65574;PMS5003;52216;54.942;73.394;2022-12-29T15:55:33;8.00;7.50;3.00
65574;PMS5003;52216;54.942;73.394;2022-12-29T15:58:48;9.00;8.00;3.00
65574;PMS5003;52216;54.942;73.394;2022-12-29T16:01:57;12.00;11.50;5.00
65574;PMS5003;52216;54.942;73.394;2022-12-29T16:05:00;9.25;9.25;3.25
65574;PMS5003;52216;54.942;73.394;2022-12-29T16:08:15;12.00;10.00;3.00
65574;PMS5003;52216;54.942;73.394;2022-12-29T16:11:43;10.00;8.75;3.00
65574;PMS5003;52216;54.942;73.394;2022-12-29T16:14:48;12.00;11.25;4.00
65574;PMS5003;52216;54.942;73.394;2022-12-29T16:17:52;13.00;12.00;3.00
65574;PMS5003;52216;54.942;73.394;2022-12-29T16:20:56;12.00;10.00;4.00
65574;PMS5003;52216;54.942;73.394;2022-12-29T16:24:00;11.25;10.00;4.00
65574;PMS5003;52216;54.942;73.394;2022-12-29T16:27:09;12.00;10.00;5.00
65574;PMS5003;52216;54.942;73.394;2022-12-29T16:30:27;14.00;13.00;5.00
65574;PMS5003;52216;54.942;73.394;2022-12-29T16:33:36;14.33;14.00;5.00
65574;PMS5003;52216;54.942;73.394;2022-12-29T16:36:40;15.00;13.50;6.50
65574;PMS5003;52216;54.942;73.394;2022-12-29T16:39:43;15.00;13.00;7.00
65574;PMS5003;52216;54.942;73.394;2022-12-29T16:42:46;14.00;12.00;6.00
65574;PMS5003;52216;54.942;73.394;2022-12-29T16:48:54;12.00;11.00;4.00
65574;PMS5003;52216;54.942;73.394;2022-12-29T16:51:58;12.00;11.00;4.00
65574;PMS5003;52216;54.942;73.394;2022-12-29T16:55:15;13.50;11.00;3.25
65574;PMS5003;52216;54.942;73.394;2022-12-29T16:58:19;11.00;10.00;3.00
65574;PMS5003;52216;54.942;73.394;2022-12-29T17:01:37;11.00;10.00;3.00
65574;PMS5003;52216;54.942;73.394;2022-12-29T17:04:40;11.00;9.25;3.00
65574;PMS5003;52216;54.942;73.394;2022-12-29T17:07:43;11.00;8.00;3.00
65574;PMS5003;52216;54.942;73.394;2022-12-29T17:10:47;10.00;7.75;3.00
65574;PMS5003;52216;54.942;73.394;2022-12-29T17:14:13;10.00;7.25;1.75
65574;PMS5003;52216;54.942;73.394;2022-12-29T17:20:28;10.00;8.00;2.00
65574;PMS5003;52216;54.942;73.394;2022-12-29T17:23:42;9.25;6.00;2.00
65574;PMS5003;52216;54.942;73.394;2022-12-29T17:26:51;8.75;5.75;2.00
65574;PMS5003;52216;54.942;73.394;2022-12-29T17:30:13;4.50;3.50;1.00
65574;PMS5003;52216;54.942;73.394;2022-12-29T17:33:18;5.00;4.00;1.00
65574;PMS5003;52216;54.942;73.394;2022-12-29T17:36:21;7.00;3.75;1.00
65574;PMS5003;52216;54.942;73.394;2022-12-29T17:39:24;5.25;5.00;2.00
65574;PMS5003;52216;54.942;73.394;2022-12-29T17:42:27;7.00;7.00;3.00
65574;PMS5003;52216;54.942;73.394;2022-12-29T17:45:35;7.00;5.00;3.00
65574;PMS5003;52216;54.942;73.394;2022-12-29T17:48:45;6.50;5.00;1.50
65574;PMS5003;52216;54.942;73.394;2022-12-29T17:51:48;6.00;5.00;1.00
65574;PMS5003;52216;54.942;73.394;2022-12-29T17:54:57;7.00;5.75;2.75
65574;PMS5003;52216;54.942;73.394;2022-12-29T17:58:14;9.00;7.00;1.50
65574;PMS5003;52216;54.942;73.394;2022-12-29T18:01:28;6.00;5.00;1.25
65574;PMS5003;52216;54.942;73.394;2022-12-29T18:04:33;5.00;4.25;2.00
65574;PMS5003;52216;54.942;73.394;2022-12-29T18:07:36;7.00;6.00;2.00
65574;PMS5003;52216;54.942;73.394;2022-12-29T18:10:39;4.50;4.50;2.50
65574;PMS5003;52216;54.942;73.394;2022-12-29T18:13:42;6.50;5.75;2.00
65574;PMS5003;52216;54.942;73.394;2022-12-29T18:16:51;8.75;7.00;2.00
65574;PMS5003;52216;54.942;73.394;2022-12-29T18:19:54;8.25;6.25;2.00
65574;PMS5003;52216;54.942;73.394;2022-12-29T18:23:21;8.50;5.00;3.00
65574;PMS5003;52216;54.942;73.394;2022-12-29T18:26:25;9.00;6.00;2.00
65574;PMS5003;52216;54.942;73.394;2022-12-29T18:29:37;11.00;8.00;3.00
65574;PMS5003;52216;54.942;73.394;2022-12-29T18:32:40;10.00;7.00;1.00
65574;PMS5003;52216;54.942;73.394;2022-12-29T18:35:52;7.00;5.50;1.25
65574;PMS5003;52216;54.942;73.394;2022-12-29T18:39:06;5.00;5.00;1.00
65574;PMS5003;52216;54.942;73.394;2022-12-29T18:42:09;7.50;5.50;1.50
65574;PMS5003;52216;54.942;73.394;2022-12-29T18:45:19;7.75;5.00;2.25
65574;PMS5003;52216;54.942;73.394;2022-12-29T18:48:33;6.75;5.25;1.00
65574;PMS5003;52216;54.942;73.394;2022-12-29T18:51:44;7.00;5.00;2.25
65574;PMS5003;52216;54.942;73.394;2022-12-29T18:54:48;5.50;5.00;1.00
65574;PMS5003;52216;54.942;73.394;2022-12-29T18:57:50;7.75;5.75;2.50
65574;PMS5003;52216;54.942;73.394;2022-12-29T19:00:59;5.00;5.00;2.00
65574;PMS5003;52216;54.942;73.394;2022-12-29T19:04:03;6.00;5.00;2.00
65574;PMS5003;52216;54.942;73.394;2022-12-29T19:07:06;4.25;3.00;0.00
65574;PMS5003;52216;54.942;73.394;2022-12-29T19:10:09;1.50;1.00;0.00
65574;PMS5003;52216;54.942;73.394;2022-12-29T19:13:15;3.00;1.25;0.00
65574;PMS5003;52216;54.942;73.394;2022-12-29T19:16:19;2.75;1.75;0.00
65574;PMS5003;52216;54.942;73.394;2022-12-29T19:19:26;0.25;0.25;0.00
65574;PMS5003;52216;54.942;73.394;2022-12-29T19:22:29;2.25;1.00;0.00
65574;PMS5003;52216;54.942;73.394;2022-12-29T19:25:32;3.00;2.50;0.00
65574;PMS5003;52216;54.942;73.394;2022-12-29T19:28:40;1.00;1.00;0.00
65574;PMS5003;52216;54.942;73.394;2022-12-29T19:31:43;1.00;1.00;0.00
65574;PMS5003;52216;54.942;73.394;2022-12-29T19:34:55;2.00;1.50;0.00
65574;PMS5003;52216;54.942;73.394;2022-12-29T19:38:04;3.00;2.25;0.00
65574;PMS5003;52216;54.942;73.394;2022-12-29T19:41:16;2.00;1.00;0.00
65574;PMS5003;52216;54.942;73.394;2022-12-29T19:44:18;3.00;3.00;0.00
65574;PMS5003;52216;54.942;73.394;2022-12-29T19:47:23;3.00;3.00;0.00
65574;PMS5003;52216;54.942;73.394;2022-12-29T19:50:26;2.25;2.00;0.00
65574;PMS5003;52216;54.942;73.394;2022-12-29T19:53:29;3.00;1.00;0.00
65574;PMS5003;52216;54.942;73.394;2022-12-29T19:56:32;3.00;2.50;1.00